EDT,Max TemperatureF,Mean TemperatureF,Min TemperatureF,Max Dew PointF,MeanDew PointF,Min DewpointF,Max Humidity, Mean Humidity, Min Humidity, Max Sea Level PressureIn, Mean Sea Level PressureIn, Min Sea Level PressureIn, Max VisibilityMiles, Mean VisibilityMiles, Min VisibilityMiles, Max Wind SpeedMPH, Mean Wind SpeedMPH, Max Gust SpeedMPH,PrecipitationIn, CloudCover, Events, WindDirDegrees
2013-5-1,76,67,58,59,56,53,93,72,50,30.19,30.13,30.07,10,10,10,9,3,13,0.00,6,,176
2013-5-2,77,66,54,57,54,51,93,70,47,30.18,30.14,30.09,10,10,10,15,4,20,0.00,6,,148
2013-5-3,70,64,58,56,54,51,93,75,57,30.11,30.02,29.95,10,10,10,22,7,30,T,6,Rain,135
2013-5-4,63,56,49,53,51,48,96,80,63,29.95,29.92,29.88,10,3,1,14,4,23,3.17,8,Rain,292
2013-5-5,66,57,48,50,48,46,96,74,52,29.90,29.83,29.75,10,7,1,17,3,22,1.21,7,Fog-Rain-Thunderstorm,310
2013-5-6,57,52,47,51,48,45,96,87,77,29.91,29.84,29.78,10,9,4,13,2,16,0.09,7,Fog-Rain,143
2013-5-7,74,62,50,52,50,48,96,69,41,29.99,29.93,29.89,10,10,10,16,3,22,0.00,5,,318
2013-5-8,78,65,51,59,54,50,96,71,46,30.06,30.01,29.96,10,10,10,12,2,21,0.00,4,,270
2013-5-9,83,69,55,59,55,50,93,64,34,30.12,30.06,30.01,10,10,10,14,3,20,0.00,4,Fog,226
2013-5-10,74,67,59,59,57,55,93,73,53,30.07,30.01,29.95,10,10,7,15,5,18,0.00,6,,189
2013-5-11,76,67,58,64,59,51,93,76,58,30.00,29.94,29.88,10,10,7,15,5,21,0.04,6,Rain,247
2013-5-12,69,59,49,52,37,28,86,54,22,30.16,30.08,30.00,10,10,10,18,8,22,0.00,2,,334
2013-5-13,71,57,43,42,36,30,83,52,20,30.26,30.20,30.15,10,10,10,17,4,22,0.00,0,,300
2013-5-14,83,65,46,55,48,43,86,60,34,30.25,30.16,30.06,10,10,10,18,5,24,0.00,1,,199
2013-5-15,88,73,57,57,54,51,86,58,29,30.16,30.08,30.00,10,10,10,16,4,21,0.00,2,,227
2013-5-16,85,73,60,60,58,56,90,67,43,30.07,30.01,29.96,10,10,10,14,3,17,0.00,4,,181
2013-5-17,81,72,62,66,61,58,90,71,51,30.09,30.04,30.00,10,10,10,12,3,15,0.36,6,Rain,185
2013-5-18,77,71,65,70,66,64,100,87,74,30.07,30.03,29.98,10,9,4,12,3,17,0.41,7,Fog-Rain,148
2013-5-19,72,66,60,70,65,61,100,91,81,30.16,30.05,29.99,10,6,1,20,5,24,1.62,8,Fog-Rain-Thunderstorm,171
2013-5-20,84,72,59,67,62,57,100,79,58,30.13,30.06,29.99,10,7,0,10,2,14,0.00,4,Fog,144
2013-5-21,89,76,62,69,65,61,93,70,46,30.05,29.97,29.88,10,10,5,18,4,22,0.00,3,Fog,270
2013-5-22,86,76,66,70,66,64,93,72,51,29.95,29.90,29.83,10,9,1,28,5,32,0.29,5,Rain-Thunderstorm,184
2013-5-23,84,74,63,65,60,53,100,69,37,30.02,29.95,29.90,10,10,10,22,7,30,0.00,3,Fog-Rain,298
2013-5-24,75,66,56,54,48,39,78,54,29,30.27,30.17,30.04,10,10,10,20,8,25,0.00,1,,357
2013-5-25,81,66,50,53,46,39,89,56,23,30.34,30.26,30.17,10,10,10,12,2,15,0.00,4,,40
2013-5-26,83,69,55,58,53,47,86,59,32,30.27,30.21,30.15,10,10,10,10,2,13,0.00,3,,23
2013-5-27,86,72,58,62,58,54,90,62,34,30.22,30.14,30.08,10,10,10,15,3,20,0.00,4,,171
2013-5-28,87,76,65,62,60,57,87,62,37,30.17,30.11,30.07,10,10,10,15,4,30,0.00,3,,179
2013-5-29,86,75,64,64,61,57,87,62,37,30.20,30.13,30.09,10,10,10,14,5,21,0.00,3,,152
2013-5-30,84,75,65,65,64,62,87,69,51,30.21,30.14,30.09,10,10,10,15,5,20,0.00,4,,152
2013-5-31,86,78,69,66,64,62,84,66,48,30.18,30.10,30.03,10,10,10,15,6,20,0.00,5,,157